sensor_id;sensor_type;location;lat;lon;timestamp;temperature;humidity
21759;DHT22;11041;50.854;20.580;2022-07-06T00:02:09;16.40;99.90
21759;DHT22;11041;50.854;20.580;2022-07-06T00:04:36;16.40;99.90
21759;DHT22;11041;50.854;20.580;2022-07-06T00:07:02;16.40;99.90
21759;DHT22;11041;50.854;20.580;2022-07-06T00:09:29;16.40;99.90
21759;DHT22;11041;50.854;20.580;2022-07-06T00:11:55;16.50;99.90
21759;DHT22;11041;50.854;20.580;2022-07-06T00:14:22;16.40;99.90
21759;DHT22;11041;50.854;20.580;2022-07-06T00:16:49;16.50;99.90
21759;DHT22;11041;50.854;20.580;2022-07-06T00:19:16;16.50;99.90
21759;DHT22;11041;50.854;20.580;2022-07-06T00:21:42;16.50;99.90
21759;DHT22;11041;50.854;20.580;2022-07-06T00:24:08;16.50;99.90
21759;DHT22;11041;50.854;20.580;2022-07-06T00:26:35;16.50;99.90
21759;DHT22;11041;50.854;20.580;2022-07-06T00:29:02;16.60;99.90
21759;DHT22;11041;50.854;20.580;2022-07-06T00:31:28;16.60;99.90
21759;DHT22;11041;50.854;20.580;2022-07-06T00:33:57;16.60;99.90
21759;DHT22;11041;50.854;20.580;2022-07-06T00:36:25;16.70;99.90
21759;DHT22;11041;50.854;20.580;2022-07-06T00:38:52;16.60;99.90
21759;DHT22;11041;50.854;20.580;2022-07-06T00:41:18;16.60;99.90
21759;DHT22;11041;50.854;20.580;2022-07-06T00:43:50;16.60;99.90
21759;DHT22;11041;50.854;20.580;2022-07-06T00:46:36;16.60;99.90
21759;DHT22;11041;50.854;20.580;2022-07-06T00:49:03;16.60;99.90
21759;DHT22;11041;50.854;20.580;2022-07-06T00:51:32;16.50;99.90
21759;DHT22;11041;50.854;20.580;2022-07-06T00:54:04;16.60;99.90
21759;DHT22;11041;50.854;20.580;2022-07-06T00:56:32;16.50;99.90
21759;DHT22;11041;50.854;20.580;2022-07-06T00:59:02;16.50;99.90
21759;DHT22;11041;50.854;20.580;2022-07-06T01:01:29;16.50;99.90
21759;DHT22;11041;50.854;20.580;2022-07-06T01:03:55;16.50;99.90
21759;DHT22;11041;50.854;20.580;2022-07-06T01:06:22;16.40;99.90
21759;DHT22;11041;50.854;20.580;2022-07-06T01:08:48;16.40;99.90
21759;DHT22;11041;50.854;20.580;2022-07-06T01:11:20;16.40;99.90
21759;DHT22;11041;50.854;20.580;2022-07-06T01:13:47;16.40;99.90
21759;DHT22;11041;50.854;20.580;2022-07-06T01:16:16;16.40;99.90
21759;DHT22;11041;50.854;20.580;2022-07-06T01:18:43;16.40;99.90
21759;DHT22;11041;50.854;20.580;2022-07-06T01:21:14;16.40;99.90
21759;DHT22;11041;50.854;20.580;2022-07-06T01:23:46;16.40;99.90
21759;DHT22;11041;50.854;20.580;2022-07-06T01:26:15;16.50;99.90
21759;DHT22;11041;50.854;20.580;2022-07-06T01:28:48;16.40;99.90
21759;DHT22;11041;50.854;20.580;2022-07-06T01:31:28;16.50;99.90
21759;DHT22;11041;50.854;20.580;2022-07-06T01:33:56;16.40;99.90
21759;DHT22;11041;50.854;20.580;2022-07-06T01:36:23;16.40;99.90
21759;DHT22;11041;50.854;20.580;2022-07-06T01:38:51;16.40;99.90
21759;DHT22;11041;50.854;20.580;2022-07-06T01:41:20;16.40;99.90
21759;DHT22;11041;50.854;20.580;2022-07-06T01:43:47;16.40;99.90
21759;DHT22;11041;50.854;20.580;2022-07-06T01:46:15;16.40;99.90
21759;DHT22;11041;50.854;20.580;2022-07-06T01:48:42;16.40;99.90
21759;DHT22;11041;50.854;20.580;2022-07-06T01:51:09;16.40;99.90
21759;DHT22;11041;50.854;20.580;2022-07-06T01:53:38;16.40;99.90
21759;DHT22;11041;50.854;20.580;2022-07-06T01:56:05;16.40;99.90
21759;DHT22;11041;50.854;20.580;2022-07-06T01:58:32;16.40;99.90
21759;DHT22;11041;50.854;20.580;2022-07-06T02:00:59;16.50;99.90
21759;DHT22;11041;50.854;20.580;2022-07-06T02:03:26;16.50;99.90
21759;DHT22;11041;50.854;20.580;2022-07-06T02:05:52;16.40;99.90
21759;DHT22;11041;50.854;20.580;2022-07-06T02:08:18;16.40;99.90
21759;DHT22;11041;50.854;20.580;2022-07-06T02:10:45;16.40;99.90
21759;DHT22;11041;50.854;20.580;2022-07-06T02:13:11;16.40;99.90
21759;DHT22;11041;50.854;20.580;2022-07-06T02:15:38;16.40;99.90
21759;DHT22;11041;50.854;20.580;2022-07-06T02:18:05;16.40;99.90
21759;DHT22;11041;50.854;20.580;2022-07-06T02:20:31;16.40;99.90
21759;DHT22;11041;50.854;20.580;2022-07-06T02:22:58;16.40;99.90
21759;DHT22;11041;50.854;20.580;2022-07-06T02:25:24;16.40;99.90
21759;DHT22;11041;50.854;20.580;2022-07-06T02:27:51;16.40;99.90
21759;DHT22;11041;50.854;20.580;2022-07-06T02:30:17;16.50;99.90
21759;DHT22;11041;50.854;20.580;2022-07-06T02:32:44;16.50;99.90
21759;DHT22;11041;50.854;20.580;2022-07-06T02:35:11;16.50;99.90
21759;DHT22;11041;50.854;20.580;2022-07-06T02:37:37;16.40;99.90
21759;DHT22;11041;50.854;20.580;2022-07-06T02:40:05;16.40;99.90
21759;DHT22;11041;50.854;20.580;2022-07-06T02:42:32;16.40;99.90
21759;DHT22;11041;50.854;20.580;2022-07-06T02:44:58;16.40;99.90
21759;DHT22;11041;50.854;20.580;2022-07-06T02:47:25;16.40;99.90
21759;DHT22;11041;50.854;20.580;2022-07-06T02:49:52;16.40;99.90
21759;DHT22;11041;50.854;20.580;2022-07-06T02:52:19;16.40;99.90
21759;DHT22;11041;50.854;20.580;2022-07-06T02:54:46;16.40;99.90
21759;DHT22;11041;50.854;20.580;2022-07-06T02:57:15;16.40;99.90
21759;DHT22;11041;50.854;20.580;2022-07-06T02:59:42;16.40;99.90
21759;DHT22;11041;50.854;20.580;2022-07-06T03:02:10;16.40;99.90
21759;DHT22;11041;50.854;20.580;2022-07-06T03:04:37;16.30;99.90
21759;DHT22;11041;50.854;20.580;2022-07-06T03:07:04;16.30;99.90
21759;DHT22;11041;50.854;20.580;2022-07-06T03:09:30;16.40;99.90
21759;DHT22;11041;50.854;20.580;2022-07-06T03:11:57;16.40;99.90
21759;DHT22;11041;50.854;20.580;2022-07-06T03:14:24;16.40;99.90
21759;DHT22;11041;50.854;20.580;2022-07-06T03:16:51;16.40;99.90
21759;DHT22;11041;50.854;20.580;2022-07-06T03:19:18;16.40;99.90
21759;DHT22;11041;50.854;20.580;2022-07-06T03:21:44;16.30;99.90
21759;DHT22;11041;50.854;20.580;2022-07-06T03:24:11;16.30;99.90
21759;DHT22;11041;50.854;20.580;2022-07-06T03:26:38;16.30;99.90
21759;DHT22;11041;50.854;20.580;2022-07-06T03:29:04;16.30;99.90
21759;DHT22;11041;50.854;20.580;2022-07-06T03:31:31;16.30;99.90
21759;DHT22;11041;50.854;20.580;2022-07-06T03:33:57;16.30;99.90
21759;DHT22;11041;50.854;20.580;2022-07-06T03:36:24;16.20;99.90
21759;DHT22;11041;50.854;20.580;2022-07-06T03:38:50;16.30;99.90
21759;DHT22;11041;50.854;20.580;2022-07-06T03:41:17;16.30;99.90
21759;DHT22;11041;50.854;20.580;2022-07-06T03:43:44;16.30;99.90
21759;DHT22;11041;50.854;20.580;2022-07-06T03:46:10;16.20;99.90
21759;DHT22;11041;50.854;20.580;2022-07-06T03:48:36;16.20;99.90
21759;DHT22;11041;50.854;20.580;2022-07-06T03:51:03;16.20;99.90
21759;DHT22;11041;50.854;20.580;2022-07-06T03:53:31;16.20;99.90
21759;DHT22;11041;50.854;20.580;2022-07-06T03:55:58;16.20;99.90
21759;DHT22;11041;50.854;20.580;2022-07-06T03:58:43;16.20;99.90
21759;DHT22;11041;50.854;20.580;2022-07-06T04:01:09;16.20;99.90
21759;DHT22;11041;50.854;20.580;2022-07-06T04:03:36;16.20;99.90
21759;DHT22;11041;50.854;20.580;2022-07-06T04:06:02;16.30;99.90
21759;DHT22;11041;50.854;20.580;2022-07-06T04:08:29;16.30;99.90
21759;DHT22;11041;50.854;20.580;2022-07-06T04:10:55;16.30;99.90
21759;DHT22;11041;50.854;20.580;2022-07-06T04:13:22;16.30;99.90
21759;DHT22;11041;50.854;20.580;2022-07-06T04:15:49;16.30;99.90
21759;DHT22;11041;50.854;20.580;2022-07-06T04:18:16;16.30;99.90
21759;DHT22;11041;50.854;20.580;2022-07-06T04:20:43;16.30;99.90
21759;DHT22;11041;50.854;20.580;2022-07-06T04:23:09;16.20;99.90
21759;DHT22;11041;50.854;20.580;2022-07-06T04:25:36;16.20;99.90
21759;DHT22;11041;50.854;20.580;2022-07-06T04:28:02;16.20;99.90
21759;DHT22;11041;50.854;20.580;2022-07-06T04:30:29;16.20;99.90
21759;DHT22;11041;50.854;20.580;2022-07-06T04:32:56;16.20;99.90
21759;DHT22;11041;50.854;20.580;2022-07-06T04:35:22;16.20;99.90
21759;DHT22;11041;50.854;20.580;2022-07-06T04:37:49;16.20;99.90
21759;DHT22;11041;50.854;20.580;2022-07-06T04:40:16;16.20;99.90
21759;DHT22;11041;50.854;20.580;2022-07-06T04:42:43;16.20;99.90
21759;DHT22;11041;50.854;20.580;2022-07-06T04:45:10;16.20;99.90
21759;DHT22;11041;50.854;20.580;2022-07-06T04:47:37;16.20;99.90
21759;DHT22;11041;50.854;20.580;2022-07-06T04:50:04;16.30;99.90
21759;DHT22;11041;50.854;20.580;2022-07-06T04:52:31;16.30;99.90
21759;DHT22;11041;50.854;20.580;2022-07-06T04:54:57;16.30;99.90
21759;DHT22;11041;50.854;20.580;2022-07-06T04:57:24;16.40;99.90
21759;DHT22;11041;50.854;20.580;2022-07-06T04:59:52;16.40;99.90
21759;DHT22;11041;50.854;20.580;2022-07-06T05:02:18;16.50;99.90
21759;DHT22;11041;50.854;20.580;2022-07-06T05:04:45;16.50;99.90
21759;DHT22;11041;50.854;20.580;2022-07-06T05:07:11;16.50;99.90
21759;DHT22;11041;50.854;20.580;2022-07-06T05:09:38;16.60;99.90
21759;DHT22;11041;50.854;20.580;2022-07-06T05:12:05;16.60;99.90
21759;DHT22;11041;50.854;20.580;2022-07-06T05:14:32;16.70;99.90
21759;DHT22;11041;50.854;20.580;2022-07-06T05:16:58;16.80;99.90
21759;DHT22;11041;50.854;20.580;2022-07-06T05:19:25;16.80;99.90
21759;DHT22;11041;50.854;20.580;2022-07-06T05:21:51;16.80;99.90
21759;DHT22;11041;50.854;20.580;2022-07-06T05:24:18;16.80;99.90
21759;DHT22;11041;50.854;20.580;2022-07-06T05:26:45;16.80;99.90
21759;DHT22;11041;50.854;20.580;2022-07-06T05:29:12;16.80;99.90
21759;DHT22;11041;50.854;20.580;2022-07-06T05:31:38;16.90;99.90
21759;DHT22;11041;50.854;20.580;2022-07-06T05:34:05;17.00;99.90
21759;DHT22;11041;50.854;20.580;2022-07-06T05:36:31;17.00;99.90
21759;DHT22;11041;50.854;20.580;2022-07-06T05:38:57;17.00;99.90
21759;DHT22;11041;50.854;20.580;2022-07-06T05:41:24;17.00;99.90
21759;DHT22;11041;50.854;20.580;2022-07-06T05:43:50;17.00;99.90
21759;DHT22;11041;50.854;20.580;2022-07-06T05:46:17;17.10;99.90
21759;DHT22;11041;50.854;20.580;2022-07-06T05:48:44;17.10;99.90
21759;DHT22;11041;50.854;20.580;2022-07-06T05:51:29;17.30;99.90
21759;DHT22;11041;50.854;20.580;2022-07-06T05:53:55;17.40;99.90
21759;DHT22;11041;50.854;20.580;2022-07-06T05:56:22;17.40;99.90
21759;DHT22;11041;50.854;20.580;2022-07-06T05:58:49;17.50;99.90
21759;DHT22;11041;50.854;20.580;2022-07-06T06:01:15;17.50;99.90
21759;DHT22;11041;50.854;20.580;2022-07-06T06:03:42;17.60;99.90
21759;DHT22;11041;50.854;20.580;2022-07-06T06:06:08;17.70;99.90
21759;DHT22;11041;50.854;20.580;2022-07-06T06:08:35;17.80;99.90
21759;DHT22;11041;50.854;20.580;2022-07-06T06:11:01;17.70;99.90
21759;DHT22;11041;50.854;20.580;2022-07-06T06:13:28;17.70;99.90
21759;DHT22;11041;50.854;20.580;2022-07-06T06:15:54;17.50;99.90
21759;DHT22;11041;50.854;20.580;2022-07-06T06:18:21;17.40;99.90
21759;DHT22;11041;50.854;20.580;2022-07-06T06:20:48;17.40;99.90
21759;DHT22;11041;50.854;20.580;2022-07-06T06:23:15;17.40;99.90
21759;DHT22;11041;50.854;20.580;2022-07-06T06:25:41;17.40;99.90
21759;DHT22;11041;50.854;20.580;2022-07-06T06:28:10;17.50;99.90
21759;DHT22;11041;50.854;20.580;2022-07-06T06:30:38;17.50;99.90
21759;DHT22;11041;50.854;20.580;2022-07-06T06:33:19;17.60;99.90
21759;DHT22;11041;50.854;20.580;2022-07-06T06:35:49;17.70;99.90
21759;DHT22;11041;50.854;20.580;2022-07-06T06:38:19;17.80;99.90
21759;DHT22;11041;50.854;20.580;2022-07-06T06:40:47;17.90;99.90
21759;DHT22;11041;50.854;20.580;2022-07-06T06:43:13;18.00;99.90
21759;DHT22;11041;50.854;20.580;2022-07-06T06:45:40;18.00;99.90
21759;DHT22;11041;50.854;20.580;2022-07-06T06:48:06;18.10;99.90
21759;DHT22;11041;50.854;20.580;2022-07-06T06:50:33;18.10;99.90
21759;DHT22;11041;50.854;20.580;2022-07-06T06:52:59;18.10;99.90
21759;DHT22;11041;50.854;20.580;2022-07-06T06:55:26;18.10;99.90
21759;DHT22;11041;50.854;20.580;2022-07-06T06:57:53;18.10;99.90
21759;DHT22;11041;50.854;20.580;2022-07-06T07:00:19;18.20;99.90
21759;DHT22;11041;50.854;20.580;2022-07-06T07:02:45;18.20;99.90
21759;DHT22;11041;50.854;20.580;2022-07-06T07:05:13;18.30;99.90
21759;DHT22;11041;50.854;20.580;2022-07-06T07:07:39;18.30;99.90
21759;DHT22;11041;50.854;20.580;2022-07-06T07:10:06;18.30;99.90
21759;DHT22;11041;50.854;20.580;2022-07-06T07:12:33;18.30;99.90
21759;DHT22;11041;50.854;20.580;2022-07-06T07:15:00;18.40;99.90
21759;DHT22;11041;50.854;20.580;2022-07-06T07:17:27;18.50;99.90
21759;DHT22;11041;50.854;20.580;2022-07-06T07:19:53;18.70;99.90
21759;DHT22;11041;50.854;20.580;2022-07-06T07:22:22;18.80;99.90
21759;DHT22;11041;50.854;20.580;2022-07-06T07:24:50;19.00;99.90
21759;DHT22;11041;50.854;20.580;2022-07-06T07:27:18;18.90;99.90
21759;DHT22;11041;50.854;20.580;2022-07-06T07:29:44;19.00;99.90
21759;DHT22;11041;50.854;20.580;2022-07-06T07:32:11;19.00;99.90
21759;DHT22;11041;50.854;20.580;2022-07-06T07:34:37;19.00;99.90
21759;DHT22;11041;50.854;20.580;2022-07-06T07:37:04;19.00;99.90
21759;DHT22;11041;50.854;20.580;2022-07-06T07:39:30;19.00;99.90
21759;DHT22;11041;50.854;20.580;2022-07-06T07:41:56;19.00;99.90
21759;DHT22;11041;50.854;20.580;2022-07-06T07:44:23;19.00;99.90
21759;DHT22;11041;50.854;20.580;2022-07-06T07:46:50;19.10;99.90
21759;DHT22;11041;50.854;20.580;2022-07-06T07:49:18;19.10;99.90
21759;DHT22;11041;50.854;20.580;2022-07-06T07:51:48;19.20;99.90
21759;DHT22;11041;50.854;20.580;2022-07-06T07:54:15;19.20;99.90
21759;DHT22;11041;50.854;20.580;2022-07-06T07:56:42;19.20;99.90
21759;DHT22;11041;50.854;20.580;2022-07-06T07:59:09;19.30;99.90
21759;DHT22;11041;50.854;20.580;2022-07-06T08:01:36;19.20;99.90
21759;DHT22;11041;50.854;20.580;2022-07-06T08:04:03;19.10;99.90
21759;DHT22;11041;50.854;20.580;2022-07-06T08:06:30;19.20;99.90
21759;DHT22;11041;50.854;20.580;2022-07-06T08:08:56;19.20;99.90
21759;DHT22;11041;50.854;20.580;2022-07-06T08:11:23;19.10;99.90
21759;DHT22;11041;50.854;20.580;2022-07-06T08:13:50;19.00;99.90
21759;DHT22;11041;50.854;20.580;2022-07-06T08:16:16;19.10;99.90
21759;DHT22;11041;50.854;20.580;2022-07-06T08:18:43;19.00;99.90
21759;DHT22;11041;50.854;20.580;2022-07-06T08:21:09;19.00;99.90
21759;DHT22;11041;50.854;20.580;2022-07-06T08:23:36;19.20;99.90
21759;DHT22;11041;50.854;20.580;2022-07-06T08:26:03;19.20;99.90
21759;DHT22;11041;50.854;20.580;2022-07-06T08:28:29;19.20;99.90
21759;DHT22;11041;50.854;20.580;2022-07-06T08:30:56;19.30;99.90
21759;DHT22;11041;50.854;20.580;2022-07-06T08:33:23;19.30;99.90
21759;DHT22;11041;50.854;20.580;2022-07-06T08:35:49;19.50;99.90
21759;DHT22;11041;50.854;20.580;2022-07-06T08:38:16;19.60;99.90
21759;DHT22;11041;50.854;20.580;2022-07-06T08:40:45;19.60;99.90
21759;DHT22;11041;50.854;20.580;2022-07-06T08:43:13;19.60;99.90
21759;DHT22;11041;50.854;20.580;2022-07-06T08:45:41;19.60;99.90
21759;DHT22;11041;50.854;20.580;2022-07-06T08:48:11;19.80;99.90
21759;DHT22;11041;50.854;20.580;2022-07-06T08:50:38;20.00;99.90
21759;DHT22;11041;50.854;20.580;2022-07-06T08:53:05;20.20;99.90
21759;DHT22;11041;50.854;20.580;2022-07-06T08:55:33;20.30;99.90
21759;DHT22;11041;50.854;20.580;2022-07-06T08:58:00;20.40;99.90
21759;DHT22;11041;50.854;20.580;2022-07-06T09:00:26;20.40;99.90
21759;DHT22;11041;50.854;20.580;2022-07-06T09:02:53;20.40;99.90
21759;DHT22;11041;50.854;20.580;2022-07-06T09:05:23;20.60;99.90
21759;DHT22;11041;50.854;20.580;2022-07-06T09:07:51;20.50;99.90
21759;DHT22;11041;50.854;20.580;2022-07-06T09:10:20;20.60;99.90
21759;DHT22;11041;50.854;20.580;2022-07-06T09:12:48;20.80;99.90
21759;DHT22;11041;50.854;20.580;2022-07-06T09:15:15;20.90;99.90
21759;DHT22;11041;50.854;20.580;2022-07-06T09:17:43;20.90;99.90
21759;DHT22;11041;50.854;20.580;2022-07-06T09:20:12;20.90;99.90
21759;DHT22;11041;50.854;20.580;2022-07-06T09:22:41;20.80;99.90
21759;DHT22;11041;50.854;20.580;2022-07-06T09:25:12;20.80;99.90
21759;DHT22;11041;50.854;20.580;2022-07-06T09:27:46;20.80;99.90
21759;DHT22;11041;50.854;20.580;2022-07-06T09:30:16;20.80;99.90
21759;DHT22;11041;50.854;20.580;2022-07-06T09:32:45;20.70;99.90
21759;DHT22;11041;50.854;20.580;2022-07-06T09:40:35;20.80;99.90
21759;DHT22;11041;50.854;20.580;2022-07-06T09:43:23;20.70;99.90
21759;DHT22;11041;50.854;20.580;2022-07-06T09:45:52;20.60;99.90
21759;DHT22;11041;50.854;20.580;2022-07-06T09:48:23;20.70;99.90
21759;DHT22;11041;50.854;20.580;2022-07-06T09:50:56;20.90;99.90
21759;DHT22;11041;50.854;20.580;2022-07-06T09:53:26;21.00;99.90
21759;DHT22;11041;50.854;20.580;2022-07-06T09:55:55;21.00;99.90
21759;DHT22;11041;50.854;20.580;2022-07-06T09:58:24;21.00;99.90
21759;DHT22;11041;50.854;20.580;2022-07-06T10:00:51;21.20;99.90
21759;DHT22;11041;50.854;20.580;2022-07-06T10:03:19;21.30;99.90
21759;DHT22;11041;50.854;20.580;2022-07-06T10:05:47;21.50;99.90
21759;DHT22;11041;50.854;20.580;2022-07-06T10:08:16;21.70;99.90
21759;DHT22;11041;50.854;20.580;2022-07-06T10:10:44;21.80;99.90
21759;DHT22;11041;50.854;20.580;2022-07-06T10:13:11;21.60;99.90
21759;DHT22;11041;50.854;20.580;2022-07-06T10:15:40;21.70;99.90
21759;DHT22;11041;50.854;20.580;2022-07-06T10:18:09;21.60;99.90
21759;DHT22;11041;50.854;20.580;2022-07-06T10:20:38;21.50;99.90
21759;DHT22;11041;50.854;20.580;2022-07-06T10:23:07;21.50;99.90
21759;DHT22;11041;50.854;20.580;2022-07-06T10:25:35;21.50;99.90
21759;DHT22;11041;50.854;20.580;2022-07-06T10:28:02;21.30;99.90
21759;DHT22;11041;50.854;20.580;2022-07-06T10:30:36;21.50;99.90
21759;DHT22;11041;50.854;20.580;2022-07-06T10:33:04;21.50;99.90
21759;DHT22;11041;50.854;20.580;2022-07-06T10:35:32;21.50;99.90
21759;DHT22;11041;50.854;20.580;2022-07-06T10:38:05;21.60;99.90
21759;DHT22;11041;50.854;20.580;2022-07-06T10:40:39;21.60;99.90
21759;DHT22;11041;50.854;20.580;2022-07-06T10:43:33;21.70;99.90
21759;DHT22;11041;50.854;20.580;2022-07-06T10:46:21;21.80;99.90
21759;DHT22;11041;50.854;20.580;2022-07-06T10:48:48;21.90;99.90
21759;DHT22;11041;50.854;20.580;2022-07-06T10:51:27;22.10;99.90
21759;DHT22;11041;50.854;20.580;2022-07-06T10:53:59;22.20;99.90
21759;DHT22;11041;50.854;20.580;2022-07-06T10:56:38;22.30;99.90
21759;DHT22;11041;50.854;20.580;2022-07-06T10:59:32;22.20;99.90
21759;DHT22;11041;50.854;20.580;2022-07-06T11:02:15;22.20;99.90
21759;DHT22;11041;50.854;20.580;2022-07-06T11:04:47;22.10;99.90
21759;DHT22;11041;50.854;20.580;2022-07-06T11:07:16;22.00;99.90
21759;DHT22;11041;50.854;20.580;2022-07-06T11:09:59;21.70;99.90
21759;DHT22;11041;50.854;20.580;2022-07-06T11:12:26;21.80;99.90
21759;DHT22;11041;50.854;20.580;2022-07-06T11:14:53;21.80;99.90
21759;DHT22;11041;50.854;20.580;2022-07-06T11:17:20;21.50;99.90
21759;DHT22;11041;50.854;20.580;2022-07-06T11:19:58;21.10;99.90
21759;DHT22;11041;50.854;20.580;2022-07-06T11:22:36;21.10;99.90
21759;DHT22;11041;50.854;20.580;2022-07-06T11:25:05;21.00;99.90
21759;DHT22;11041;50.854;20.580;2022-07-06T11:27:34;21.00;99.90
21759;DHT22;11041;50.854;20.580;2022-07-06T11:30:01;20.90;99.90
21759;DHT22;11041;50.854;20.580;2022-07-06T11:32:28;20.80;99.90
21759;DHT22;11041;50.854;20.580;2022-07-06T11:34:54;20.60;99.90
21759;DHT22;11041;50.854;20.580;2022-07-06T11:37:22;20.40;99.90
21759;DHT22;11041;50.854;20.580;2022-07-06T11:39:49;20.10;99.90
21759;DHT22;11041;50.854;20.580;2022-07-06T11:42:17;19.80;99.90
21759;DHT22;11041;50.854;20.580;2022-07-06T11:44:45;19.80;99.90
21759;DHT22;11041;50.854;20.580;2022-07-06T11:47:13;19.70;99.90
21759;DHT22;11041;50.854;20.580;2022-07-06T11:49:40;19.50;99.90
21759;DHT22;11041;50.854;20.580;2022-07-06T11:52:12;19.40;99.90
21759;DHT22;11041;50.854;20.580;2022-07-06T11:54:41;19.40;99.90
21759;DHT22;11041;50.854;20.580;2022-07-06T11:57:10;19.40;99.90
21759;DHT22;11041;50.854;20.580;2022-07-06T11:59:39;19.10;99.90
21759;DHT22;11041;50.854;20.580;2022-07-06T12:02:09;19.00;99.90
21759;DHT22;11041;50.854;20.580;2022-07-06T12:04:40;18.80;99.90
21759;DHT22;11041;50.854;20.580;2022-07-06T12:07:10;18.80;99.90
21759;DHT22;11041;50.854;20.580;2022-07-06T12:09:45;18.90;99.90
21759;DHT22;11041;50.854;20.580;2022-07-06T12:12:12;18.90;99.90
21759;DHT22;11041;50.854;20.580;2022-07-06T12:14:40;19.00;99.90
21759;DHT22;11041;50.854;20.580;2022-07-06T12:17:13;18.90;99.90
21759;DHT22;11041;50.854;20.580;2022-07-06T12:19:41;18.90;99.90
21759;DHT22;11041;50.854;20.580;2022-07-06T12:22:09;18.80;99.90
21759;DHT22;11041;50.854;20.580;2022-07-06T12:24:37;18.90;99.90
21759;DHT22;11041;50.854;20.580;2022-07-06T12:27:18;18.90;99.90
21759;DHT22;11041;50.854;20.580;2022-07-06T12:29:47;19.00;99.90
21759;DHT22;11041;50.854;20.580;2022-07-06T12:32:18;18.90;99.90
21759;DHT22;11041;50.854;20.580;2022-07-06T12:35:03;19.00;99.90
21759;DHT22;11041;50.854;20.580;2022-07-06T12:37:33;19.10;99.90
21759;DHT22;11041;50.854;20.580;2022-07-06T12:40:01;19.00;99.90
21759;DHT22;11041;50.854;20.580;2022-07-06T12:42:29;19.30;99.90
21759;DHT22;11041;50.854;20.580;2022-07-06T12:44:55;19.50;99.90
21759;DHT22;11041;50.854;20.580;2022-07-06T12:47:23;19.40;99.90
21759;DHT22;11041;50.854;20.580;2022-07-06T12:50:10;19.30;99.90
21759;DHT22;11041;50.854;20.580;2022-07-06T12:52:39;19.00;99.90
21759;DHT22;11041;50.854;20.580;2022-07-06T12:55:07;19.00;99.90
21759;DHT22;11041;50.854;20.580;2022-07-06T12:57:47;18.90;99.90
21759;DHT22;11041;50.854;20.580;2022-07-06T13:00:16;18.70;99.90
21759;DHT22;11041;50.854;20.580;2022-07-06T13:02:48;18.80;99.90
21759;DHT22;11041;50.854;20.580;2022-07-06T13:05:25;18.80;99.90
21759;DHT22;11041;50.854;20.580;2022-07-06T13:07:57;18.70;99.90
21759;DHT22;11041;50.854;20.580;2022-07-06T13:10:25;18.70;99.90
21759;DHT22;11041;50.854;20.580;2022-07-06T13:12:52;18.70;99.90
21759;DHT22;11041;50.854;20.580;2022-07-06T13:15:19;18.70;99.90
21759;DHT22;11041;50.854;20.580;2022-07-06T13:17:46;18.50;99.90
21759;DHT22;11041;50.854;20.580;2022-07-06T13:20:13;18.60;99.90
21759;DHT22;11041;50.854;20.580;2022-07-06T13:22:42;18.50;99.90
21759;DHT22;11041;50.854;20.580;2022-07-06T13:25:09;18.40;99.90
21759;DHT22;11041;50.854;20.580;2022-07-06T13:27:36;18.40;99.90
21759;DHT22;11041;50.854;20.580;2022-07-06T13:30:03;18.50;99.90
21759;DHT22;11041;50.854;20.580;2022-07-06T13:32:30;18.60;99.90
21759;DHT22;11041;50.854;20.580;2022-07-06T13:34:56;18.60;99.90
21759;DHT22;11041;50.854;20.580;2022-07-06T13:37:23;18.50;99.90
21759;DHT22;11041;50.854;20.580;2022-07-06T13:39:49;18.40;99.90
21759;DHT22;11041;50.854;20.580;2022-07-06T13:42:16;18.50;99.90
21759;DHT22;11041;50.854;20.580;2022-07-06T13:44:43;18.60;99.90
21759;DHT22;11041;50.854;20.580;2022-07-06T13:47:10;18.60;99.90
21759;DHT22;11041;50.854;20.580;2022-07-06T13:49:37;18.60;99.90
21759;DHT22;11041;50.854;20.580;2022-07-06T13:52:04;18.70;99.90
21759;DHT22;11041;50.854;20.580;2022-07-06T13:54:32;18.90;99.90
21759;DHT22;11041;50.854;20.580;2022-07-06T13:57:02;19.00;99.90
21759;DHT22;11041;50.854;20.580;2022-07-06T13:59:29;18.90;99.90
21759;DHT22;11041;50.854;20.580;2022-07-06T14:01:56;19.00;99.90
21759;DHT22;11041;50.854;20.580;2022-07-06T14:04:23;19.10;99.90
21759;DHT22;11041;50.854;20.580;2022-07-06T14:06:49;19.00;99.90
21759;DHT22;11041;50.854;20.580;2022-07-06T14:09:16;18.90;99.90
21759;DHT22;11041;50.854;20.580;2022-07-06T14:11:42;18.90;99.90
21759;DHT22;11041;50.854;20.580;2022-07-06T14:14:09;18.90;99.90
21759;DHT22;11041;50.854;20.580;2022-07-06T14:16:36;18.90;99.90
21759;DHT22;11041;50.854;20.580;2022-07-06T14:19:02;18.90;99.90
21759;DHT22;11041;50.854;20.580;2022-07-06T14:21:29;18.90;99.90
21759;DHT22;11041;50.854;20.580;2022-07-06T14:23:55;19.00;99.90
21759;DHT22;11041;50.854;20.580;2022-07-06T14:26:22;19.30;99.90
21759;DHT22;11041;50.854;20.580;2022-07-06T14:28:48;19.50;99.90
21759;DHT22;11041;50.854;20.580;2022-07-06T14:31:15;19.50;99.90
21759;DHT22;11041;50.854;20.580;2022-07-06T14:33:42;19.60;99.90
21759;DHT22;11041;50.854;20.580;2022-07-06T14:36:08;19.60;99.90
21759;DHT22;11041;50.854;20.580;2022-07-06T14:38:35;20.00;99.90
21759;DHT22;11041;50.854;20.580;2022-07-06T14:41:01;20.20;99.90
21759;DHT22;11041;50.854;20.580;2022-07-06T14:43:28;20.10;99.90
21759;DHT22;11041;50.854;20.580;2022-07-06T14:45:54;20.30;99.90
21759;DHT22;11041;50.854;20.580;2022-07-06T14:48:21;20.30;99.90
21759;DHT22;11041;50.854;20.580;2022-07-06T14:50:47;20.40;99.90
21759;DHT22;11041;50.854;20.580;2022-07-06T14:53:14;20.60;99.90
21759;DHT22;11041;50.854;20.580;2022-07-06T14:55:40;21.00;99.90
21759;DHT22;11041;50.854;20.580;2022-07-06T14:58:07;22.00;99.90
21759;DHT22;11041;50.854;20.580;2022-07-06T15:00:33;22.50;99.90
21759;DHT22;11041;50.854;20.580;2022-07-06T15:03:00;22.50;99.90
21759;DHT22;11041;50.854;20.580;2022-07-06T15:05:26;23.30;99.90
21759;DHT22;11041;50.854;20.580;2022-07-06T15:07:53;24.00;99.90
21759;DHT22;11041;50.854;20.580;2022-07-06T15:10:19;24.20;99.90
21759;DHT22;11041;50.854;20.580;2022-07-06T15:12:46;24.10;99.90
21759;DHT22;11041;50.854;20.580;2022-07-06T15:15:14;23.80;99.90
21759;DHT22;11041;50.854;20.580;2022-07-06T15:17:40;23.40;99.90
21759;DHT22;11041;50.854;20.580;2022-07-06T15:20:07;23.10;99.90
21759;DHT22;11041;50.854;20.580;2022-07-06T15:22:34;23.10;99.90
21759;DHT22;11041;50.854;20.580;2022-07-06T15:25:02;22.50;99.90
21759;DHT22;11041;50.854;20.580;2022-07-06T15:27:29;23.00;99.90